createdAt,value
2023-07-18T00:10:48.660Z,17.59
2023-07-18T00:16:09.909Z,17.56
2023-07-18T00:21:30.505Z,17.55
2023-07-18T00:26:51.668Z,17.56
2023-07-18T00:32:12.399Z,17.54
2023-07-18T00:37:33.443Z,17.57
2023-07-18T00:42:53.814Z,17.53
2023-07-18T00:48:15.360Z,17.50
2023-07-18T00:53:38.941Z,17.51
2023-07-18T00:58:59.465Z,17.44
2023-07-18T01:04:19.699Z,17.43
2023-07-18T01:09:41.027Z,17.41
2023-07-18T01:15:01.885Z,17.45
2023-07-18T01:20:25.094Z,17.46
2023-07-18T01:25:45.623Z,17.41
2023-07-18T01:31:06.518Z,17.42
2023-07-18T01:36:29.614Z,17.44
2023-07-18T01:41:51.936Z,17.43
2023-07-18T01:47:13.678Z,17.46
2023-07-18T01:52:35.703Z,17.43
2023-07-18T01:57:56.494Z,17.42
2023-07-18T02:03:17.564Z,17.41
2023-07-18T02:08:38.325Z,17.43
2023-07-18T02:13:58.748Z,17.40
2023-07-18T02:19:20.804Z,17.38
2023-07-18T02:24:42.203Z,17.40
2023-07-18T02:30:03.158Z,17.39
2023-07-18T02:35:29.855Z,17.39
2023-07-18T02:40:53.254Z,17.43
2023-07-18T02:46:13.554Z,17.46
2023-07-18T02:51:34.451Z,17.43
2023-07-18T02:56:55.156Z,17.48
2023-07-18T03:02:16.735Z,17.46
2023-07-18T03:07:37.408Z,17.41
2023-07-18T03:12:58.779Z,17.39
2023-07-18T03:18:22.978Z,17.40
2023-07-18T03:23:44.325Z,17.43
2023-07-18T03:29:07.170Z,17.43
2023-07-18T03:34:29.752Z,17.40
2023-07-18T03:39:50.318Z,17.39
2023-07-18T03:45:14.233Z,17.38
2023-07-18T03:50:34.614Z,17.44
2023-07-18T03:56:02.627Z,17.44
2023-07-18T04:01:23.031Z,17.43
2023-07-18T04:06:46.601Z,17.50
2023-07-18T04:12:08.528Z,17.56
2023-07-18T04:17:29.425Z,17.58
2023-07-18T04:22:49.808Z,17.62
2023-07-18T04:28:10.243Z,17.63
2023-07-18T04:33:39.307Z,17.71
2023-07-18T04:38:59.814Z,17.81
2023-07-18T04:44:20.272Z,17.81
2023-07-18T04:49:40.758Z,17.99
2023-07-18T04:55:01.545Z,18.04
2023-07-18T05:00:22.218Z,18.07
2023-07-18T05:05:46.104Z,18.04
2023-07-18T05:11:06.759Z,18.07
2023-07-18T05:16:27.483Z,18.16
2023-07-18T05:21:47.949Z,18.22
2023-07-18T05:27:08.355Z,18.30
2023-07-18T05:32:29.274Z,18.33
2023-07-18T05:37:50.206Z,18.46
2023-07-18T05:43:10.899Z,18.49
2023-07-18T05:48:31.841Z,18.72
2023-07-18T05:53:52.553Z,19.15
2023-07-18T05:59:12.995Z,19.29
2023-07-18T06:04:36.368Z,19.46
2023-07-18T06:09:56.880Z,19.40
2023-07-18T06:15:17.498Z,19.54
2023-07-18T06:20:40.928Z,19.60
2023-07-18T06:26:01.643Z,19.37
2023-07-18T06:31:22.726Z,19.20
2023-07-18T06:36:45.459Z,19.06
2023-07-18T06:42:06.906Z,19.04
2023-07-18T06:47:27.494Z,19.07
2023-07-18T06:52:48.152Z,19.24
2023-07-18T06:58:11.798Z,19.31
2023-07-18T07:03:33.188Z,19.37
2023-07-18T07:08:53.994Z,19.30
2023-07-18T07:14:14.655Z,19.36
2023-07-18T07:19:37.010Z,19.51
2023-07-18T07:24:58.115Z,19.63
2023-07-18T07:30:18.818Z,19.67
2023-07-18T07:35:42.335Z,19.69
2023-07-18T07:41:03.037Z,19.64
2023-07-18T07:46:23.373Z,19.86
2023-07-18T07:51:44.010Z,19.84
2023-07-18T07:57:04.702Z,19.69
2023-07-18T08:02:25.504Z,19.70
2023-07-18T08:07:46.652Z,19.87
2023-07-18T08:13:07.346Z,19.87
2023-07-18T08:18:28.397Z,20.10
2023-07-18T08:23:49.919Z,20.32
2023-07-18T08:29:10.540Z,20.38
2023-07-18T08:34:31.446Z,20.39
2023-07-18T08:39:51.741Z,20.76
2023-07-18T08:45:16.045Z,20.69
2023-07-18T08:50:40.058Z,20.74
2023-07-18T08:56:00.884Z,20.99
2023-07-18T09:01:21.629Z,21.12
2023-07-18T09:07:00.368Z,20.93
2023-07-18T09:12:20.766Z,20.86
2023-07-18T09:17:41.781Z,21.01
2023-07-18T09:23:04.355Z,21.32
2023-07-18T09:28:32.737Z,22.14
2023-07-18T09:33:55.514Z,22.38
2023-07-18T09:39:16.020Z,22.46
2023-07-18T09:44:37.341Z,22.71
2023-07-18T09:49:57.960Z,23.38
2023-07-18T09:55:27.973Z,23.43
2023-07-18T10:00:50.117Z,23.42
2023-07-18T10:06:14.962Z,23.73
2023-07-18T10:11:58.902Z,24.55
2023-07-18T10:17:26.433Z,24.67
2023-07-18T10:22:49.238Z,23.73
2023-07-18T10:28:10.301Z,23.86
2023-07-18T10:33:30.744Z,24.29
2023-07-18T10:38:53.518Z,24.99
2023-07-18T10:44:15.902Z,25.62
2023-07-18T10:49:37.960Z,26.31
2023-07-18T10:54:59.206Z,25.80
2023-07-18T11:00:21.190Z,25.38
2023-07-18T11:05:43.343Z,25.50
2023-07-18T11:11:05.585Z,25.07
2023-07-18T11:16:26.442Z,24.78
2023-07-18T11:21:47.833Z,23.04
2023-07-18T11:27:20.260Z,23.33
2023-07-18T11:32:43.105Z,23.14
2023-07-18T11:38:03.700Z,23.08
2023-07-18T11:43:30.137Z,23.73
2023-07-18T11:48:54.957Z,24.62
2023-07-18T11:54:15.813Z,25.67
2023-07-18T11:59:36.364Z,25.93
2023-07-18T12:04:57.025Z,27.01
2023-07-18T12:10:19.311Z,28.32
2023-07-18T12:15:40.009Z,28.76
2023-07-18T12:21:00.857Z,28.45
2023-07-18T12:26:22.421Z,28.36
2023-07-18T12:31:46.212Z,28.51
2023-07-18T12:37:07.637Z,28.42
2023-07-18T12:42:28.362Z,27.83
2023-07-18T12:47:49.234Z,28.27
2023-07-18T12:53:09.951Z,28.73
2023-07-18T12:58:31.246Z,28.24
2023-07-18T13:03:51.942Z,27.78
2023-07-18T13:09:12.817Z,27.46
2023-07-18T13:14:33.404Z,27.09
2023-07-18T13:19:54.696Z,25.89
2023-07-18T13:25:15.859Z,25.52
2023-07-18T13:30:37.584Z,25.21
2023-07-18T13:35:59.246Z,25.10
2023-07-18T13:41:19.783Z,24.57
2023-07-18T13:46:40.113Z,24.65
2023-07-18T13:52:00.727Z,24.83
2023-07-18T13:57:21.174Z,24.68
2023-07-18T14:02:42.010Z,24.25
2023-07-18T14:08:04.140Z,23.99
2023-07-18T14:13:24.761Z,24.14
2023-07-18T14:18:45.446Z,23.78
2023-07-18T14:24:06.592Z,23.46
2023-07-18T14:29:27.114Z,23.81
2023-07-18T14:34:48.405Z,23.72
2023-07-18T14:40:09.568Z,23.45
2023-07-18T14:45:30.095Z,23.43
2023-07-18T14:50:51.342Z,23.25
2023-07-18T14:56:11.796Z,22.92
2023-07-18T15:01:32.499Z,23.04
2023-07-18T15:06:54.505Z,23.06
2023-07-18T15:12:14.816Z,24.24
2023-07-18T15:17:47.728Z,26.15
2023-07-18T15:23:09.237Z,26.07
2023-07-18T15:28:30.010Z,25.55
2023-07-18T15:33:50.666Z,25.90
2023-07-18T15:39:11.090Z,30.31
2023-07-18T15:44:31.780Z,32.56
2023-07-18T15:49:52.622Z,31.58
2023-07-18T15:55:13.148Z,29.24
2023-07-18T16:00:34.187Z,31.24
2023-07-18T16:05:54.752Z,32.34
2023-07-18T16:11:15.203Z,33.11
2023-07-18T16:16:35.730Z,33.72
2023-07-18T16:21:56.212Z,34.29
2023-07-18T16:27:16.664Z,35.55
2023-07-18T16:32:37.369Z,36.09
2023-07-18T16:37:57.782Z,33.32
2023-07-18T16:43:18.487Z,32.01
2023-07-18T16:48:39.016Z,31.44
2023-07-18T16:53:59.782Z,30.13
2023-07-18T16:59:20.218Z,27.29
2023-07-18T17:04:41.297Z,26.18
2023-07-18T17:10:02.839Z,26.36
2023-07-18T17:15:23.447Z,24.92
2023-07-18T17:20:44.319Z,24.30
2023-07-18T17:26:04.823Z,23.88
2023-07-18T17:31:25.707Z,23.06
2023-07-18T17:36:51.418Z,22.55
2023-07-18T17:42:12.119Z,22.71
2023-07-18T17:47:32.628Z,22.38
2023-07-18T17:52:53.390Z,22.43
2023-07-18T17:58:14.235Z,22.41
2023-07-18T18:03:35.220Z,21.72
2023-07-18T18:08:55.739Z,21.60
2023-07-18T18:14:16.459Z,21.02
2023-07-18T18:19:37.110Z,20.58
2023-07-18T18:24:57.672Z,20.73
2023-07-18T18:30:18.139Z,20.98
2023-07-18T18:43:05.948Z,20.09
2023-07-18T18:48:27.015Z,20.04
2023-07-18T18:53:47.482Z,19.92
2023-07-18T18:59:08.112Z,19.75
2023-07-18T19:04:28.729Z,19.53
2023-07-18T19:09:49.832Z,19.27
2023-07-18T19:15:10.578Z,19.06
2023-07-18T19:20:31.139Z,18.98
2023-07-18T19:25:51.734Z,18.85
2023-07-18T19:31:12.406Z,18.66
2023-07-18T19:36:34.505Z,18.56
2023-07-18T19:41:55.046Z,18.50
2023-07-18T19:47:15.902Z,18.44
2023-07-18T19:52:36.431Z,18.34
2023-07-18T19:57:56.905Z,18.34
2023-07-18T20:03:17.683Z,18.40
2023-07-18T20:08:38.261Z,18.39
2023-07-18T20:13:58.988Z,18.38
2023-07-18T20:19:19.576Z,18.35
2023-07-18T20:24:40.269Z,18.32
2023-07-18T20:30:00.737Z,18.60
2023-07-18T20:35:22.013Z,18.55
2023-07-18T20:40:43.358Z,18.68
2023-07-18T20:46:05.226Z,18.51
2023-07-18T20:51:26.245Z,18.36
2023-07-18T20:56:46.838Z,18.29
2023-07-18T21:02:07.942Z,18.18
2023-07-18T21:07:28.378Z,18.13
2023-07-18T21:12:49.835Z,18.10
2023-07-18T21:18:10.163Z,18.03
2023-07-18T21:23:30.532Z,17.97
2023-07-18T21:29:03.952Z,17.96
2023-07-18T21:34:26.053Z,17.95
2023-07-18T21:39:46.569Z,17.96
2023-07-18T21:45:07.531Z,17.93
2023-07-18T21:50:28.091Z,18.06
2023-07-18T21:55:48.433Z,18.27
2023-07-18T22:01:09.378Z,18.34
2023-07-18T22:06:30.029Z,18.40
2023-07-18T22:11:52.661Z,18.41
2023-07-18T22:17:13.688Z,18.39
2023-07-18T22:22:34.478Z,18.36
2023-07-18T22:27:55.381Z,18.29
2023-07-18T22:33:16.180Z,18.30
2023-07-18T22:38:36.864Z,18.28
2023-07-18T22:43:57.679Z,18.31
2023-07-18T22:49:18.253Z,18.33
2023-07-18T22:54:39.830Z,18.28
2023-07-18T23:00:00.710Z,18.29
2023-07-18T23:05:21.489Z,18.31
2023-07-18T23:11:01.085Z,18.28
2023-07-18T23:16:21.897Z,18.24
2023-07-18T23:21:42.765Z,18.21
2023-07-18T23:27:03.237Z,18.20
2023-07-18T23:32:23.643Z,18.07
2023-07-18T23:37:44.570Z,17.96
2023-07-18T23:43:08.068Z,17.97
2023-07-18T23:48:28.600Z,18.02
2023-07-18T23:53:48.896Z,18.08
2023-07-18T23:59:09.600Z,18.15
